KMDT/MDT METAR and TAF weather

Enter ICAO airport designator
Station Type Date Time Source
KMDT METAR 2018/12/12 06:56 UTC NOAA

KMDT 120656Z 32013G21KT 10SM OVC044 03/M06 A3004 RMK AO2 PK WND 33026/0636 SLP175 T00331056


Station Type Date Time Source
KMDT Decoded METAR 2018/12/12 06:56 UTC NOAA

HARRISBURG INTERNATIONAL AIRPORT, PA, United States (KMDT) 40-12N 076-46W 95M
Dec 12, 2018 - 01:56 AM EST / 2018.12.12 0656 UTC
Wind: from the NW (320 degrees) at 15 MPH (13 KT) gusting to 24 MPH (21 KT):0
Visibility: 10 mile(s):0
Sky conditions: overcast
Temperature: 37.9 F (3.3 C)
Dew Point: 21.9 F (-5.6 C)
Relative Humidity: 52%
Pressure (altimeter): 30.04 in. Hg (1017 hPa)
ob: KMDT 120656Z 32013G21KT 10SM OVC044 03/M06 A3004 RMK AO2 PK WND 33026/0636 SLP175 T00331056
cycle: 7

Station Type Date Time Source
KMDT TAF 2018/12/12 06:24 UTC NOAA

TAF KMDT 120523Z 1206/1306 31005KT P6SM OVC045
FM120700 28007KT P6SM BKN035
FM121900 19006KT P6SM FEW040


Example: see airport list